Time;durP1;ratioP1;P1;durP2;ratioP2;P2;SDS_P1;SDS_P2;PMS_P1;PMS_P2;Temp;Humidity;BMP_temperature;BMP_pressure;BME280_temperature;BME280_humidity;BME280_pressure;Samples;Min_cycle;Max_cycle;Signal;HPM_P1;HPM_P2
2021/08/01 00:01:59;;;;;;;20.88;7.25;;;;;;;18.02;57.72;100758.03;5086287;28;20135;-65
2021/08/01 00:04:26;;;;;;;15.10;6.72;;;;;;;17.97;58.17;100767.47;5082617;28;20040;-67
2021/08/01 00:06:53;;;;;;;13.43;6.90;;;;;;;17.93;57.98;100760.81;5086530;28;20456;-62
2021/08/01 00:09:20;;;;;;;14.70;7.57;;;;;;;17.94;58.45;100768.13;5085181;28;20055;-61
2021/08/01 00:11:47;;;;;;;16.25;6.80;;;;;;;17.91;58.73;100760.31;5087422;28;20064;-61
2021/08/01 00:14:14;;;;;;;18.00;7.03;;;;;;;17.83;58.43;100744.16;5087372;28;20130;-61
2021/08/01 00:16:41;;;;;;;15.25;7.55;;;;;;;17.90;58.18;100761.47;5082996;28;20036;-61
2021/08/01 00:19:08;;;;;;;14.63;6.97;;;;;;;17.73;58.57;100731.09;5089849;28;20059;-60
2021/08/01 00:21:34;;;;;;;15.10;7.38;;;;;;;17.86;58.17;100749.97;5091657;28;20130;-58
2021/08/01 00:24:01;;;;;;;17.10;7.78;;;;;;;17.83;58.21;100736.50;5094303;27;20546;-68
2021/08/01 00:26:28;;;;;;;16.25;7.63;;;;;;;17.88;58.59;100746.81;5081681;28;20040;-64
2021/08/01 00:28:55;;;;;;;15.68;7.53;;;;;;;17.85;58.48;100739.03;5088513;28;20131;-65
2021/08/01 00:31:22;;;;;;;13.57;6.65;;;;;;;17.81;58.67;100723.84;5086590;28;20135;-62
2021/08/01 00:33:49;;;;;;;21.17;8.25;;;;;;;17.77;58.72;100735.81;5088528;28;20476;-61
2021/08/01 00:36:16;;;;;;;18.98;7.75;;;;;;;17.78;58.57;100719.72;5085564;28;20127;-62
2021/08/01 00:38:43;;;;;;;18.02;7.78;;;;;;;17.73;58.38;100716.97;5086388;28;20079;-62
2021/08/01 00:41:10;;;;;;;17.55;8.50;;;;;;;17.53;58.63;100676.84;5087031;28;20510;-66
2021/08/01 00:43:37;;;;;;;15.00;7.13;;;;;;;17.84;58.69;100726.03;5087039;28;20075;-66
2021/08/01 00:46:04;;;;;;;16.85;7.80;;;;;;;17.70;58.28;100693.03;5091285;28;20075;-66
2021/08/01 00:48:33;;;;;;;17.42;7.93;;;;;;;17.79;58.08;100703.59;5089445;28;20041;-64
2021/08/01 00:51:00;;;;;;;12.85;6.47;;;;;;;17.91;58.32;100721.56;5079851;28;20076;-59
2021/08/01 00:53:27;;;;;;;12.57;6.32;;;;;;;17.86;58.14;100718.91;5084264;28;20080;-58
2021/08/01 00:55:54;;;;;;;14.40;7.40;;;;;;;17.96;57.82;100726.28;5104613;28;20075;-58
2021/08/01 00:58:21;;;;;;;18.48;7.90;;;;;;;18.00;57.60;100724.44;5090721;28;20054;-59
2021/08/01 01:03:35;;;;;;;14.85;7.20;;;;;;;17.86;57.74;100687.00;5083103;28;20048;-58
2021/08/01 01:06:08;;;;;;;14.55;6.63;;;;;;;17.97;57.77;100708.16;5084802;28;20083;-58
2021/08/01 01:08:38;;;;;;;15.52;6.72;;;;;;;17.95;57.85;100710.47;5088998;28;20119;-58
2021/08/01 01:11:06;;;;;;;15.68;6.43;;;;;;;17.95;57.66;100702.84;5086107;28;20040;-58
2021/08/01 01:13:38;;;;;;;13.10;6.30;;;;;;;17.96;57.69;100703.66;5094361;28;20070;-59
2021/08/01 01:16:05;;;;;;;16.65;7.50;;;;;;;17.97;57.54;100702.50;5078572;28;20040;-58
2021/08/01 01:18:50;;;;;;;16.65;7.75;;;;;;;17.96;57.46;100698.84;5092859;28;20049;-59
2021/08/01 01:21:23;;;;;;;17.08;6.55;;;;;;;17.96;57.46;100698.00;5083270;28;20079;-59
2021/08/01 01:24:00;;;;;;;14.93;6.97;;;;;;;17.97;57.48;100699.66;5088752;28;20097;-58
2021/08/01 01:26:46;;;;;;;17.05;5.97;;;;;;;17.97;57.35;100692.03;5078049;28;20127;-58
2021/08/01 01:29:49;;;;;;;12.65;6.18;;;;;;;17.82;57.31;100669.06;5096856;28;20083;-57
2021/08/01 01:32:24;;;;;;;12.43;5.47;;;;;;;17.77;57.24;100678.47;5082158;28;20127;-55
2021/08/01 01:35:02;;;;;;;11.05;5.05;;;;;;;17.62;57.27;100662.78;5089311;28;20095;-57
2021/08/01 01:37:31;;;;;;;12.48;6.47;;;;;;;17.65;57.08;100667.78;5091696;28;20119;-57
2021/08/01 01:40:01;;;;;;;10.67;5.93;;;;;;;17.61;57.03;100663.94;5081854;28;20068;-58
2021/08/01 01:42:30;;;;;;;14.93;6.25;;;;;;;17.60;57.43;100667.91;5088224;28;20080;-58
2021/08/01 01:44:59;;;;;;;14.57;6.45;;;;;;;17.60;57.56;100684.84;5082255;28;20049;-58
2021/08/01 01:47:27;;;;;;;14.85;6.00;;;;;;;17.63;57.41;100678.56;5087793;28;20451;-58
2021/08/01 01:49:57;;;;;;;15.33;7.00;;;;;;;17.65;57.16;100673.44;5081914;28;20140;-58
2021/08/01 01:52:26;;;;;;;11.27;6.05;;;;;;;17.74;57.44;100671.47;5085743;28;20118;-59
2021/08/01 01:54:53;;;;;;;14.65;6.80;;;;;;;17.77;57.32;100668.00;5079319;28;20135;-58
2021/08/01 01:57:20;;;;;;;13.32;6.93;;;;;;;17.75;57.17;100664.66;5085789;28;20075;-59
2021/08/01 01:59:48;;;;;;;13.02;6.82;;;;;;;17.69;56.97;100657.50;5077714;28;20079;-60
2021/08/01 02:02:14;;;;;;;13.60;6.32;;;;;;;17.84;57.32;100678.00;5082173;28;20045;-58
2021/08/01 02:04:41;;;;;;;15.00;7.00;;;;;;;17.86;57.04;100687.84;5091188;28;20552;-63
2021/08/01 02:07:10;;;;;;;12.82;7.13;;;;;;;17.68;56.97;100658.66;5086451;28;20086;-63
2021/08/01 02:09:43;;;;;;;17.05;7.43;;;;;;;17.87;56.77;100685.84;5085717;28;20041;-63
2021/08/01 02:12:26;;;;;;;17.05;8.40;;;;;;;17.77;57.04;100679.31;5076976;28;20098;-65
2021/08/01 02:15:00;;;;;;;17.98;8.73;;;;;;;17.75;57.34;100681.63;5072586;28;20139;-64
2021/08/01 02:17:38;;;;;;;18.42;7.93;;;;;;;17.71;57.56;100680.59;5086716;28;20191;-63
2021/08/01 02:20:07;;;;;;;15.73;7.78;;;;;;;17.69;57.59;100677.25;5088371;28;20147;-62
2021/08/01 02:22:34;;;;;;;16.30;8.00;;;;;;;17.58;57.66;100669.41;5087564;28;20123;-63
2021/08/01 02:25:05;;;;;;;13.70;7.78;;;;;;;17.65;57.31;100670.59;5082084;28;20070;-62
2021/08/01 02:27:34;;;;;;;14.10;7.00;;;;;;;17.57;57.36;100662.06;5087726;28;20120;-58
2021/08/01 02:30:02;;;;;;;18.10;6.87;;;;;;;17.59;57.43;100669.06;5093106;28;20136;-59
2021/08/01 02:32:30;;;;;;;14.48;7.05;;;;;;;17.58;57.59;100675.06;5080220;28;20127;-57
2021/08/01 02:34:59;;;;;;;12.77;6.50;;;;;;;17.50;57.86;100669.06;5084208;28;20051;-58
2021/08/01 02:37:26;;;;;;;11.90;6.88;;;;;;;17.48;57.90;100657.22;5092010;28;20072;-60
2021/08/01 02:39:56;;;;;;;12.25;6.35;;;;;;;17.52;57.55;100666.72;5089131;28;20144;-59
2021/08/01 02:42:23;;;;;;;14.83;6.83;;;;;;;17.50;57.99;100662.53;5076867;28;20456;-59
2021/08/01 02:44:56;;;;;;;14.20;5.95;;;;;;;17.36;57.91;100648.53;5089774;28;20310;-59
2021/08/01 02:47:24;;;;;;;12.77;6.88;;;;;;;17.46;57.67;100667.19;5077580;28;20071;-60
2021/08/01 02:49:54;;;;;;;14.35;6.47;;;;;;;17.39;58.09;100655.53;5085804;28;20135;-59
2021/08/01 02:52:32;;;;;;;14.50;6.72;;;;;;;17.37;58.04;100658.69;5088290;28;20081;-59
2021/08/01 02:55:01;;;;;;;;;;;;;;;17.16;58.36;100649.94;5084884;28;20059;-60
2021/08/01 02:57:30;;;;;;;11.83;5.80;;;;;;;17.01;58.34;100628.56;5087961;28;19920;-62
2021/08/01 03:00:00;;;;;;;13.75;6.22;;;;;;;17.10;58.63;100642.75;5088504;28;20075;-59
2021/08/01 03:02:28;;;;;;;;;;;;;;;16.99;59.17;100644.16;5084426;28;20455;-60
2021/08/01 03:04:56;;;;;;;11.77;6.70;;;;;;;17.01;59.51;100637.03;5083801;28;19920;-57
2021/08/01 03:07:24;;;;;;;14.37;6.13;;;;;;;16.99;59.17;100638.50;5085594;28;20492;-55
2021/08/01 03:09:54;;;;;;;10.67;5.63;;;;;;;16.88;59.94;100632.28;5088436;28;20068;-53
2021/08/01 03:12:21;;;;;;;15.75;6.80;;;;;;;16.70;60.64;100622.03;5080638;28;20048;-53
2021/08/01 03:14:48;;;;;;;11.70;6.10;;;;;;;16.55;61.53;100618.44;5081834;28;20075;-54
2021/08/01 03:17:15;;;;;;;10.93;6.13;;;;;;;16.41;62.08;100623.28;5081646;28;20072;-53
2021/08/01 03:19:42;;;;;;;16.60;7.70;;;;;;;16.37;62.31;100632.69;5077384;28;20073;-53
2021/08/01 03:22:09;;;;;;;15.13;6.90;;;;;;;16.32;62.71;100630.81;5078316;28;20135;-56
2021/08/01 03:24:36;;;;;;;14.23;6.43;;;;;;;16.21;63.03;100621.78;5089140;28;20425;-60
2021/08/01 03:27:03;;;;;;;17.20;7.13;;;;;;;16.27;63.22;100631.78;5072018;28;20090;-60
2021/08/01 03:29:29;;;;;;;11.37;6.00;;;;;;;16.24;63.26;100638.06;5083401;28;20556;-60
2021/08/01 03:31:56;;;;;;;18.77;8.30;;;;;;;16.27;63.28;100636.56;5083128;28;20040;-59
2021/08/01 03:34:23;;;;;;;13.13;6.77;;;;;;;16.28;63.30;100641.91;5086419;28;20185;-58
2021/08/01 03:36:50;;;;;;;16.43;7.00;;;;;;;16.30;63.36;100636.75;5079562;28;20544;-59
2021/08/01 03:39:17;;;;;;;15.90;6.90;;;;;;;16.32;63.08;100640.09;5096915;28;20147;-59
2021/08/01 03:41:44;;;;;;;17.73;8.40;;;;;;;16.34;62.83;100620.06;5075860;28;20135;-59
2021/08/01 03:44:11;;;;;;;14.10;7.53;;;;;;;16.49;62.38;100639.44;5087187;28;20083;-59
2021/08/01 03:46:38;;;;;;;14.33;7.37;;;;;;;16.62;62.04;100628.44;5085384;28;20132;-59
2021/08/01 03:49:05;;;;;;;17.07;7.50;;;;;;;16.70;61.73;100625.66;5081426;28;20056;-59
2021/08/01 03:51:32;;;;;;;15.00;6.40;;;;;;;16.65;61.77;100614.53;5085368;28;20071;-59
2021/08/01 03:53:59;;;;;;;13.97;6.30;;;;;;;16.73;61.56;100619.41;5089546;28;20076;-59
2021/08/01 03:56:26;;;;;;;16.07;7.30;;;;;;;16.88;61.62;100645.56;5070089;28;20127;-58
2021/08/01 03:58:54;;;;;;;16.83;6.63;;;;;;;16.88;61.59;100646.41;5083824;28;20060;-58
2021/08/01 04:01:21;;;;;;;19.80;7.37;;;;;;;16.85;61.54;100646.22;5084400;28;20065;-59
2021/08/01 04:03:48;;;;;;;18.03;7.50;;;;;;;16.84;61.41;100651.03;5081022;28;20483;-59
2021/08/01 04:06:15;;;;;;;16.27;7.07;;;;;;;16.84;61.39;100647.38;5077914;28;20087;-60
2021/08/01 04:08:43;;;;;;;16.17;7.27;;;;;;;16.83;61.50;100649.38;5084730;28;20044;-60
2021/08/01 04:11:10;;;;;;;17.13;7.47;;;;;;;16.85;61.36;100646.22;5079169;28;20567;-60
2021/08/01 04:13:37;;;;;;;16.83;7.93;;;;;;;16.88;61.74;100645.56;5079820;28;20046;-60
2021/08/01 04:16:07;;;;;;;15.97;7.77;;;;;;;16.85;61.39;100634.94;5069443;28;20080;-59
2021/08/01 04:18:33;;;;;;;15.93;7.05;;;;;;;16.76;61.66;100627.25;5086707;28;20054;-59
2021/08/01 04:21:00;;;;;;;16.40;7.23;;;;;;;16.76;61.74;100643.34;5076789;28;20171;-59
2021/08/01 04:23:27;;;;;;;16.63;7.68;;;;;;;16.77;61.41;100645.81;5080154;28;20123;-59
2021/08/01 04:25:54;;;;;;;16.40;7.47;;;;;;;16.75;61.62;100641.66;5077193;28;20124;-59
2021/08/01 04:28:21;;;;;;;11.33;6.03;;;;;;;16.37;62.05;100590.41;5072407;28;20102;-59
2021/08/01 04:30:48;;;;;;;11.93;6.37;;;;;;;16.53;62.44;100645.28;5084051;28;20131;-59
2021/08/01 04:33:14;;;;;;;15.70;7.07;;;;;;;16.43;62.47;100635.06;5084729;28;20037;-63
2021/08/01 04:35:41;;;;;;;14.43;6.70;;;;;;;16.41;62.73;100630.88;5079570;28;20048;-62
2021/08/01 04:38:08;;;;;;;13.60;7.60;;;;;;;16.36;62.69;100640.31;5080298;28;20126;-66
2021/08/01 04:40:35;;;;;;;14.13;6.83;;;;;;;16.33;62.74;100638.94;5087452;28;20079;-62
2021/08/01 04:43:02;;;;;;;14.10;7.40;;;;;;;16.25;62.69;100622.81;5091939;28;20135;-62
2021/08/01 04:45:28;;;;;;;13.33;6.57;;;;;;;16.26;62.71;100624.47;5088876;28;20040;-65
2021/08/01 04:47:55;;;;;;;18.73;6.27;;;;;;;16.30;63.15;100642.41;5093018;28;20796;-64
2021/08/01 04:50:22;;;;;;;14.60;6.53;;;;;;;16.31;62.82;100646.91;5090666;28;20482;-65
2021/08/01 04:52:51;;;;;;;16.10;7.93;;;;;;;16.32;63.14;100639.28;5106934;28;20550;-64
2021/08/01 04:55:20;;;;;;;13.97;6.10;;;;;;;16.32;63.07;100645.75;5082417;28;20131;-62
2021/08/01 04:57:47;;;;;;;17.40;8.40;;;;;;;16.11;63.23;100619.19;5083364;28;20076;-61
2021/08/01 05:00:15;;;;;;;13.13;7.13;;;;;;;16.26;63.21;100641.38;5085373;28;20087;-61
2021/08/01 05:02:41;;;;;;;13.80;7.13;;;;;;;16.17;63.41;100634.84;5091828;28;20114;-61
2021/08/01 05:05:10;;;;;;;14.77;7.37;;;;;;;16.24;63.46;100649.31;5083486;28;20131;-61
2021/08/01 05:07:37;;;;;;;19.60;8.13;;;;;;;16.21;63.80;100654.75;5088608;28;20079;-56
2021/08/01 05:10:04;;;;;;;13.83;6.93;;;;;;;16.20;63.83;100645.44;5083697;28;20109;-60
2021/08/01 05:12:31;;;;;;;16.90;6.90;;;;;;;16.19;63.69;100646.59;5085996;28;20083;-61
2021/08/01 05:14:58;;;;;;;15.18;7.15;;;;;;;15.96;63.74;100620.34;5087506;28;20052;-59
2021/08/01 05:17:25;;;;;;;23.27;8.27;;;;;;;16.19;63.71;100643.78;5083215;28;20496;-60
2021/08/01 05:19:52;;;;;;;17.20;7.37;;;;;;;15.98;63.62;100615.25;5085289;28;20083;-59
2021/08/01 05:22:19;;;;;;;14.73;7.60;;;;;;;16.30;63.37;100659.31;5084780;28;20075;-59
2021/08/01 05:24:46;;;;;;;15.50;6.87;;;;;;;16.37;63.07;100658.03;5079463;28;20048;-59
2021/08/01 05:27:12;;;;;;;12.40;6.83;;;;;;;16.33;63.24;100657.84;5089365;28;20040;-60
2021/08/01 05:29:39;;;;;;;13.37;6.07;;;;;;;16.24;63.70;100660.59;5091872;28;20132;-60
2021/08/01 05:32:06;;;;;;;19.83;7.40;;;;;;;16.19;63.61;100654.22;5079892;28;20139;-61
2021/08/01 05:34:33;;;;;;;13.93;6.70;;;;;;;16.17;63.53;100654.56;5085004;28;20083;-59
2021/08/01 05:37:00;;;;;;;16.97;7.27;;;;;;;16.28;63.45;100660.78;5075089;28;20802;-60
2021/08/01 05:39:27;;;;;;;14.60;7.17;;;;;;;16.30;63.53;100658.47;5106924;28;20503;-68
2021/08/01 05:41:54;;;;;;;15.23;6.97;;;;;;;16.32;63.58;100659.84;5090116;28;20055;-60
2021/08/01 05:44:22;;;;;;;13.77;6.97;;;;;;;16.22;63.68;100643.16;5083356;28;20127;-64
2021/08/01 05:46:48;;;;;;;19.70;7.10;;;;;;;16.17;63.46;100643.28;5086169;28;20086;-64
2021/08/01 05:49:15;;;;;;;15.57;7.03;;;;;;;16.37;63.52;100660.88;5087484;28;20508;-59
2021/08/01 05:51:42;;;;;;;17.97;6.97;;;;;;;16.38;63.58;100669.03;5088603;28;20071;-60
2021/08/01 05:54:09;;;;;;;12.37;6.40;;;;;;;16.32;64.06;100659.00;5083668;28;20068;-60
2021/08/01 05:56:36;;;;;;;13.30;6.40;;;;;;;16.35;63.74;100667.66;5085576;28;20128;-60
2021/08/01 05:59:03;;;;;;;15.80;6.30;;;;;;;16.41;63.83;100661.88;5080585;28;20087;-60
2021/08/01 06:01:30;;;;;;;15.47;6.07;;;;;;;16.46;64.01;100664.59;5085147;28;20078;-59
2021/08/01 06:03:56;;;;;;;12.67;5.80;;;;;;;16.43;63.87;100673.69;5093328;28;20074;-60
2021/08/01 06:06:23;;;;;;;15.30;7.27;;;;;;;16.46;63.92;100670.25;5090472;28;20151;-60
2021/08/01 06:08:51;;;;;;;21.13;7.43;;;;;;;16.35;64.15;100662.03;5084601;28;20122;-61
2021/08/01 06:11:20;;;;;;;12.70;5.97;;;;;;;16.35;64.21;100662.03;5090251;28;20135;-60
2021/08/01 06:13:47;;;;;;;13.47;6.50;;;;;;;16.19;64.16;100654.22;5092111;28;20048;-60
2021/08/01 06:16:16;;;;;;;14.20;6.70;;;;;;;16.22;64.51;100662.88;5085078;28;20052;-60
2021/08/01 06:18:45;;;;;;;17.43;6.50;;;;;;;16.18;64.48;100661.84;5084535;28;20043;-63
2021/08/01 06:21:18;;;;;;;15.82;7.30;;;;;;;16.11;64.91;100661.44;5080019;28;20076;-61
2021/08/01 06:23:50;;;;;;;17.20;7.30;;;;;;;15.92;65.05;100653.09;5078951;28;20136;-62
2021/08/01 06:26:20;;;;;;;15.37;7.07;;;;;;;15.97;65.02;100657.81;5080270;28;20095;-62
2021/08/01 06:28:48;;;;;;;15.23;7.00;;;;;;;15.98;65.09;100670.75;5081788;28;20100;-62
2021/08/01 06:31:15;;;;;;;14.57;7.00;;;;;;;16.03;65.31;100679.94;5082649;28;20051;-62
2021/08/01 06:33:43;;;;;;;11.03;5.10;;;;;;;16.03;65.49;100671.47;5083241;28;20036;-62
2021/08/01 06:36:14;;;;;;;15.13;7.53;;;;;;;15.95;65.61;100662.91;5081325;28;20480;-62
2021/08/01 06:38:42;;;;;;;13.47;6.80;;;;;;;15.99;65.72;100663.94;5085737;28;20044;-62
2021/08/01 06:41:10;;;;;;;12.93;6.13;;;;;;;15.91;66.05;100647.81;5093031;28;20131;-62
2021/08/01 06:43:40;;;;;;;12.20;4.93;;;;;;;16.06;65.78;100658.72;5082482;28;20139;-63
2021/08/01 06:46:07;;;;;;;;;;;;;;;16.22;65.56;100662.88;5082658;28;20217;-63
2021/08/01 06:48:34;;;;;;;13.35;7.30;;;;;;;16.34;65.07;100654.72;5088562;28;19935;-63
2021/08/01 06:51:04;;;;;;;14.35;7.10;;;;;;;16.77;64.78;100679.66;5077046;28;20131;-63
2021/08/01 06:53:31;;;;;;;11.82;5.82;;;;;;;17.12;64.01;100684.75;5085941;28;20083;-63
2021/08/01 06:55:58;;;;;;;18.25;7.00;;;;;;;17.47;63.28;100666.88;5086814;28;20726;-63
2021/08/01 06:58:25;;;;;;;14.38;6.07;;;;;;;17.88;62.84;100664.88;5078030;28;20131;-63
2021/08/01 07:00:53;;;;;;;15.85;6.13;;;;;;;17.99;62.17;100664.28;5077771;28;20075;-63
2021/08/01 07:03:20;;;;;;;12.10;5.97;;;;;;;17.67;61.64;100651.31;5081633;28;20487;-63
2021/08/01 07:05:47;;;;;;;13.38;5.75;;;;;;;17.71;61.48;100679.78;5078684;28;20123;-64
2021/08/01 07:08:14;;;;;;;13.07;5.88;;;;;;;17.64;61.52;100643.53;5083226;28;20127;-63
2021/08/01 07:10:41;;;;;;;12.65;5.85;;;;;;;17.98;60.90;100670.25;5080010;28;20146;-63
2021/08/01 07:13:09;;;;;;;17.38;6.35;;;;;;;18.16;60.73;100657.00;5081874;28;20112;-63
2021/08/01 07:15:39;;;;;;;10.32;5.60;;;;;;;18.60;60.23;100655.91;5079489;28;20076;-62
2021/08/01 07:18:07;;;;;;;11.55;5.03;;;;;;;18.75;59.40;100659.44;5090403;28;20040;-61
2021/08/01 07:20:35;;;;;;;12.05;5.65;;;;;;;18.56;58.87;100654.88;5082094;28;20425;-61
2021/08/01 07:23:02;;;;;;;11.18;4.97;;;;;;;18.61;58.97;100651.91;5086584;28;20052;-61
2021/08/01 07:25:29;;;;;;;15.48;5.75;;;;;;;18.92;58.42;100650.94;5086126;28;20127;-63
2021/08/01 07:27:56;;;;;;;10.95;5.45;;;;;;;19.62;57.84;100646.75;5089517;28;20079;-62
2021/08/01 07:30:23;;;;;;;9.07;5.03;;;;;;;20.19;56.77;100636.97;5074501;28;20131;-63
2021/08/01 07:32:50;;;;;;;8.82;4.75;;;;;;;20.15;55.98;100646.53;5084113;28;20472;-62
2021/08/01 07:35:16;;;;;;;9.05;5.43;;;;;;;20.04;55.27;100666.75;5087375;28;20135;-62
2021/08/01 07:37:44;;;;;;;11.85;6.30;;;;;;;19.87;55.71;100664.00;5085618;28;20123;-63
2021/08/01 07:40:11;;;;;;;11.77;5.90;;;;;;;20.38;55.56;100662.06;5073859;28;20139;-62
2021/08/01 07:42:38;;;;;;;10.65;6.30;;;;;;;21.03;55.53;100674.72;5077757;28;20068;-62
2021/08/01 07:45:10;;;;;;;10.02;5.40;;;;;;;21.57;54.14;100664.50;5081753;28;20087;-63
2021/08/01 07:47:37;;;;;;;8.50;5.35;;;;;;;21.62;53.91;100669.97;5084702;28;20076;-63
2021/08/01 07:50:05;;;;;;;10.43;6.13;;;;;;;21.37;52.75;100669.91;5074926;28;20056;-63
2021/08/01 07:52:33;;;;;;;12.30;5.80;;;;;;;20.73;53.41;100668.31;5075890;28;20080;-62
2021/08/01 07:55:00;;;;;;;10.93;6.15;;;;;;;20.39;53.85;100682.72;5086777;28;20131;-61
2021/08/01 07:57:32;;;;;;;12.60;6.75;;;;;;;20.02;54.00;100671.94;5085246;28;20518;-62
2021/08/01 08:00:02;;;;;;;12.15;6.43;;;;;;;19.74;54.79;100668.72;5085037;28;20048;-69
2021/08/01 08:02:29;;;;;;;15.45;6.30;;;;;;;19.42;55.51;100664.50;5082227;28;20128;-67
2021/08/01 08:04:56;;;;;;;14.13;6.53;;;;;;;19.35;55.40;100675.47;5081216;28;20496;-60
2021/08/01 08:07:23;;;;;;;13.23;5.55;;;;;;;19.17;55.73;100686.84;5087453;28;20072;-65
2021/08/01 08:09:50;;;;;;;12.98;5.82;;;;;;;19.09;55.60;100684.88;5080926;28;20504;-68
2021/08/01 08:12:18;;;;;;;10.15;5.28;;;;;;;18.99;55.58;100682.38;5082834;28;20127;-66
2021/08/01 08:14:45;;;;;;;15.18;6.13;;;;;;;18.92;56.53;100687.72;5089074;28;20127;-67
2021/08/01 08:17:12;;;;;;;10.73;5.85;;;;;;;18.91;56.21;100683.22;5079834;28;20044;-63
2021/08/01 08:19:39;;;;;;;7.63;4.75;;;;;;;18.91;56.15;100672.75;5088062;28;20502;-63
2021/08/01 08:22:10;;;;;;;12.77;6.15;;;;;;;19.08;56.46;100693.72;5077292;28;20246;-59
2021/08/01 08:24:37;;;;;;;10.32;4.85;;;;;;;19.17;55.85;100688.84;5086142;28;20131;-62
2021/08/01 08:27:05;;;;;;;13.50;5.13;;;;;;;19.17;55.63;100695.34;5090425;28;20045;-62
2021/08/01 08:29:33;;;;;;;14.82;6.20;;;;;;;19.05;55.71;100695.19;5085256;28;20138;-62
2021/08/01 08:31:59;;;;;;;10.75;5.40;;;;;;;19.13;56.12;100696.34;5080819;28;20042;-62
2021/08/01 08:34:26;;;;;;;10.63;5.28;;;;;;;19.40;55.69;100703.63;5095077;28;20131;-61
2021/08/01 08:37:00;;;;;;;9.73;5.43;;;;;;;19.59;55.43;100692.75;5081707;28;20558;-63
2021/08/01 08:39:28;;;;;;;10.02;5.35;;;;;;;19.59;54.46;100689.09;5093487;28;20050;-64
2021/08/01 08:41:59;;;;;;;12.80;6.13;;;;;;;19.64;54.58;100694.59;5090039;28;20040;-65
2021/08/01 08:44:27;;;;;;;8.43;4.72;;;;;;;19.51;54.05;100672.94;5094358;28;20132;-64
2021/08/01 08:46:55;;;;;;;15.02;6.53;;;;;;;19.54;54.30;100687.25;5092150;28;20048;-68
2021/08/01 08:49:23;;;;;;;12.13;5.47;;;;;;;19.61;54.06;100676.25;5074874;28;20472;-67
2021/08/01 08:51:53;;;;;;;13.77;5.03;;;;;;;19.64;53.54;100672.75;5083629;28;20044;-66
2021/08/01 08:54:26;;;;;;;13.80;4.53;;;;;;;19.70;53.51;100664.09;5084249;28;20076;-63
2021/08/01 08:56:55;;;;;;;8.10;4.95;;;;;;;20.19;52.91;100645.47;5084356;28;20044;-62
2021/08/01 08:59:25;;;;;;;9.35;4.65;;;;;;;20.87;52.33;100665.19;5073506;28;20139;-62
2021/08/01 09:01:52;;;;;;;8.32;4.93;;;;;;;21.53;51.41;100668.03;5079055;28;20128;-59
2021/08/01 09:04:21;;;;;;;9.90;5.35;;;;;;;21.98;50.56;100646.41;5074840;28;20044;-62
2021/08/01 09:06:49;;;;;;;8.52;4.40;;;;;;;22.40;48.21;100655.53;5084253;28;20139;-61
2021/08/01 09:09:16;;;;;;;13.50;4.80;;;;;;;23.00;47.75;100666.31;5080701;28;20083;-62
2021/08/01 09:11:44;;;;;;;7.28;4.20;;;;;;;23.47;46.24;100668.44;5075779;28;20448;-64
2021/08/01 09:14:19;;;;;;;9.25;4.20;;;;;;;24.00;45.92;100661.34;5074734;28;20382;-60
2021/08/01 09:16:49;;;;;;;8.75;4.72;;;;;;;24.38;45.21;100656.13;5092550;28;20621;-62
2021/08/01 09:19:32;;;;;;;7.20;4.13;;;;;;;24.87;44.43;100661.31;5092931;28;20475;-61
2021/08/01 09:22:19;;;;;;;7.78;4.25;;;;;;;24.88;43.94;100665.81;5093828;28;20131;-61
2021/08/01 09:24:51;;;;;;;12.05;4.75;;;;;;;24.75;43.68;100643.13;5091049;28;20480;-61
2021/08/01 09:27:32;;;;;;;6.50;3.45;;;;;;;24.67;42.72;100661.31;5075720;28;20127;-62
2021/08/01 09:30:01;;;;;;;8.90;3.58;;;;;;;24.34;42.06;100661.72;5078082;28;20123;-61
2021/08/01 09:32:46;;;;;;;7.47;4.13;;;;;;;24.24;42.12;100651.72;5085264;28;20106;-62
2021/08/01 09:35:17;;;;;;;9.10;4.10;;;;;;;24.13;41.95;100642.88;5087452;28;20324;-61
2021/08/01 09:37:54;;;;;;;8.23;4.60;;;;;;;24.54;41.58;100666.31;5072997;28;20074;-61
2021/08/01 09:40:25;;;;;;;6.75;3.65;;;;;;;24.71;41.61;100682.19;5072314;28;20090;-60
2021/08/01 09:42:52;;;;;;;8.35;4.43;;;;;;;24.68;41.85;100664.97;5073784;28;20578;-60
2021/08/01 09:45:21;;;;;;;8.40;4.18;;;;;;;24.74;41.50;100669.19;5083813;28;20547;-62
2021/08/01 09:47:50;;;;;;;7.90;4.43;;;;;;;24.70;40.85;100674.84;5093400;28;20127;-60
2021/08/01 09:50:19;;;;;;;8.00;4.00;;;;;;;24.68;40.41;100674.38;5092534;28;20062;-59
2021/08/01 09:52:46;;;;;;;7.72;3.63;;;;;;;24.76;39.64;100672.53;5093891;28;20079;-61
2021/08/01 09:55:20;;;;;;;7.30;3.70;;;;;;;24.88;39.46;100657.25;5092406;28;20052;-60
2021/08/01 09:57:51;;;;;;;7.65;4.57;;;;;;;25.10;39.21;100659.38;5093563;28;20105;-60
2021/08/01 10:00:20;;;;;;;8.05;4.03;;;;;;;25.56;38.77;100662.31;5092201;28;20468;-60
2021/08/01 10:02:48;;;;;;;6.17;3.33;;;;;;;25.96;38.23;100658.16;5076701;28;20127;-61
2021/08/01 10:05:22;;;;;;;7.30;3.67;;;;;;;26.02;37.37;100659.50;5077921;28;20121;-60
2021/08/01 10:07:53;;;;;;;6.68;4.15;;;;;;;26.13;36.51;100662.53;5093352;28;20123;-60
2021/08/01 10:10:26;;;;;;;7.47;4.22;;;;;;;26.20;36.53;100654.88;5092077;28;20040;-61
2021/08/01 10:12:59;;;;;;;10.93;3.75;;;;;;;26.72;36.60;100640.13;5093312;28;20423;-61
2021/08/01 10:15:26;;;;;;;5.95;3.53;;;;;;;27.07;35.98;100652.03;5089470;28;20460;-62
2021/08/01 10:17:54;;;;;;;8.13;5.30;;;;;;;27.04;36.19;100657.72;5092872;28;20067;-60
2021/08/01 10:20:21;;;;;;;7.22;3.60;;;;;;;27.01;36.14;100652.75;5089236;28;20103;-60
2021/08/01 10:22:48;;;;;;;9.48;3.88;;;;;;;27.44;35.99;100642.66;5088500;28;20459;-60
2021/08/01 10:25:23;;;;;;;7.97;5.03;;;;;;;27.74;36.22;100639.66;5091919;28;20127;-60
2021/08/01 10:27:53;;;;;;;8.27;4.75;;;;;;;27.70;36.35;100615.03;5086445;28;20075;-60
2021/08/01 10:30:21;;;;;;;9.57;5.63;;;;;;;27.83;35.97;100630.78;5088829;28;20044;-60
2021/08/01 10:32:53;;;;;;;7.80;4.85;;;;;;;27.63;35.88;100613.75;5086965;28;20141;-60
2021/08/01 10:35:26;;;;;;;8.75;5.18;;;;;;;27.70;35.92;100630.22;5078022;28;20210;-60
2021/08/01 10:38:00;;;;;;;11.95;5.57;;;;;;;27.57;35.76;100623.94;5084536;28;20082;-60
2021/08/01 10:40:31;;;;;;;10.65;5.90;;;;;;;27.35;35.80;100610.59;5082146;28;20163;-60
2021/08/01 10:43:03;;;;;;;17.23;6.55;;;;;;;27.33;36.07;100616.72;5079217;28;20075;-61
2021/08/01 10:45:30;;;;;;;9.90;5.57;;;;;;;27.08;36.38;100627.09;5082239;28;20045;-60
2021/08/01 10:47:58;;;;;;;16.17;6.40;;;;;;;26.77;36.46;100613.97;5073205;28;20075;-61
2021/08/01 10:50:28;;;;;;;11.25;5.70;;;;;;;26.56;36.70;100618.22;5076488;28;20087;-60
2021/08/01 10:53:20;;;;;;;8.75;5.30;;;;;;;26.49;36.56;100603.78;5072972;28;20083;-60
2021/08/01 10:55:53;;;;;;;9.95;5.00;;;;;;;26.52;36.42;100611.63;5083783;28;20627;-59
2021/08/01 10:58:20;;;;;;;7.32;4.00;;;;;;;26.47;36.10;100606.25;5082224;28;20072;-59
2021/08/01 11:00:58;;;;;;;9.95;5.13;;;;;;;26.30;35.85;100592.47;5078379;28;20561;-60
2021/08/01 11:03:26;;;;;;;8.70;3.88;;;;;;;26.16;36.41;100590.22;5086549;28;20052;-60
2021/08/01 11:05:53;;;;;;;10.30;3.88;;;;;;;26.20;35.65;100588.22;5084584;28;20084;-60
2021/08/01 11:08:20;;;;;;;8.75;4.05;;;;;;;26.15;35.48;100586.53;5082812;28;20131;-60
2021/08/01 11:11:07;;;;;;;;;;;;;;;26.08;36.52;100589.25;5072502;28;20560;-60
2021/08/01 11:13:52;;;;;;;5.72;3.47;;;;;;;26.31;35.89;100588.38;5080632;28;20114;-61
2021/08/01 11:16:31;;;;;;;7.15;4.25;;;;;;;26.38;35.15;100585.63;5084520;28;20116;-60
2021/08/01 11:19:00;;;;;;;7.00;3.67;;;;;;;26.14;34.90;100598.34;5082943;28;20106;-60
2021/08/01 11:21:37;;;;;;;4.82;3.08;;;;;;;25.62;35.64;100597.06;5082333;28;20069;-60
2021/08/01 11:24:12;;;;;;;6.32;3.40;;;;;;;25.39;35.80;100591.34;5088519;28;20036;-60
2021/08/01 11:27:03;;;;;;;4.82;2.97;;;;;;;25.28;35.61;100585.44;5081830;28;20080;-60
2021/08/01 11:29:31;;;;;;;4.95;3.33;;;;;;;25.21;35.49;100580.41;5073363;28;20131;-60
2021/08/01 11:32:08;;;;;;;5.65;3.50;;;;;;;25.03;35.67;100576.38;5082453;28;20072;-61